Cold Springs, California
Current Conditions -  °F | °C
As of 4:03 PM on Friday 19 Dec 2014 (Local Time) from KBAN Reporting Station
Light Snow Light Snow  
Wind Chill: 36°   Ceiling: 2600
Heat Index: 36°   Visibility: NA
Dew Point: 29°   Wind: 3mph
Humidity: 76%   Direction: NA
Pressure: 30.1"   Gusts: NA
Location:  38.2093°N, 119.934°W
Report Text: KBAN 200003Z AUTO VRB03KT -SN OVC026 02/M02 A3010 RMK AO2 P0000 T00221017 FZRANO $
Loading
Personal Weather Stations






























Interactive Weather Map New forecast layout! Learn more

10-Day Weather Forecast

Advertisements
Track Severe Weather on mobile